sensor_id;sensor_type;location;lat;lon;timestamp;pressure;altitude;pressure_sealevel;temperature;humidity
8641;BME280;4358;42.100;25.222;2022-08-01T00:01:35;99644.25;;;23.07;100.00
8641;BME280;4358;42.100;25.222;2022-08-01T00:04:03;99633.53;;;22.84;100.00
8641;BME280;4358;42.100;25.222;2022-08-01T00:06:31;99636.34;;;22.91;100.00
8641;BME280;4358;42.100;25.222;2022-08-01T00:08:58;99652.47;;;22.69;100.00
8641;BME280;4358;42.100;25.222;2022-08-01T00:11:25;99642.75;;;22.60;100.00
8641;BME280;4358;42.100;25.222;2022-08-01T00:13:52;99644.91;;;22.50;100.00
8641;BME280;4358;42.100;25.222;2022-08-01T00:16:19;99642.66;;;22.39;100.00
8641;BME280;4358;42.100;25.222;2022-08-01T00:18:48;99642.25;;;22.42;100.00
8641;BME280;4358;42.100;25.222;2022-08-01T00:21:15;99645.91;;;22.49;100.00
8641;BME280;4358;42.100;25.222;2022-08-01T00:23:43;99645.09;;;22.49;100.00
8641;BME280;4358;42.100;25.222;2022-08-01T00:26:11;99641.81;;;22.53;100.00
8641;BME280;4358;42.100;25.222;2022-08-01T00:28:38;99645.25;;;22.47;100.00
8641;BME280;4358;42.100;25.222;2022-08-01T00:31:05;99626.03;;;22.27;100.00
8641;BME280;4358;42.100;25.222;2022-08-01T00:33:32;99642.59;;;22.24;100.00
8641;BME280;4358;42.100;25.222;2022-08-01T00:35:59;99641.84;;;22.16;100.00
8641;BME280;4358;42.100;25.222;2022-08-01T00:38:26;99638.13;;;22.17;100.00
8641;BME280;4358;42.100;25.222;2022-08-01T00:40:54;99641.84;;;22.16;100.00
8641;BME280;4358;42.100;25.222;2022-08-01T00:43:21;99634.13;;;22.13;100.00
8641;BME280;4358;42.100;25.222;2022-08-01T00:45:48;99635.69;;;22.07;100.00
8641;BME280;4358;42.100;25.222;2022-08-01T00:48:15;99639.66;;;21.96;100.00
8641;BME280;4358;42.100;25.222;2022-08-01T00:50:42;99644.44;;;21.86;100.00
8641;BME280;4358;42.100;25.222;2022-08-01T00:53:10;99634.47;;;21.87;100.00
8641;BME280;4358;42.100;25.222;2022-08-01T00:55:36;99637.28;;;21.93;100.00
8641;BME280;4358;42.100;25.222;2022-08-01T00:58:05;99637.59;;;21.98;100.00
8641;BME280;4358;42.100;25.222;2022-08-01T01:00:33;99637.00;;;22.11;100.00
8641;BME280;4358;42.100;25.222;2022-08-01T01:03:00;99639.16;;;22.16;100.00
8641;BME280;4358;42.100;25.222;2022-08-01T01:05:27;99642.88;;;22.15;100.00
8641;BME280;4358;42.100;25.222;2022-08-01T01:07:59;99646.69;;;22.20;100.00
8641;BME280;4358;42.100;25.222;2022-08-01T01:10:32;99638.41;;;22.22;100.00
8641;BME280;4358;42.100;25.222;2022-08-01T01:13:07;99638.03;;;22.25;100.00
8641;BME280;4358;42.100;25.222;2022-08-01T01:15:40;99637.28;;;22.16;100.00
8641;BME280;4358;42.100;25.222;2022-08-01T01:18:12;99640.88;;;22.09;100.00
8641;BME280;4358;42.100;25.222;2022-08-01T01:20:42;99636.97;;;21.88;100.00
8641;BME280;4358;42.100;25.222;2022-08-01T01:23:24;99630.88;;;21.49;100.00
8641;BME280;4358;42.100;25.222;2022-08-01T01:26:09;99628.09;;;21.57;100.00
8641;BME280;4358;42.100;25.222;2022-08-01T01:28:56;99624.09;;;21.53;100.00
8641;BME280;4358;42.100;25.222;2022-08-01T01:31:26;99625.19;;;21.44;100.00
8641;BME280;4358;42.100;25.222;2022-08-01T01:33:55;99622.22;;;21.31;100.00
8641;BME280;4358;42.100;25.222;2022-08-01T01:36:26;99627.69;;;21.14;100.00
8641;BME280;4358;42.100;25.222;2022-08-01T01:38:54;99631.97;;;21.01;100.00
8641;BME280;4358;42.100;25.222;2022-08-01T01:41:22;99627.47;;;20.85;100.00
8641;BME280;4358;42.100;25.222;2022-08-01T01:43:50;99632.88;;;20.85;100.00
8641;BME280;4358;42.100;25.222;2022-08-01T01:46:23;99630.88;;;20.79;100.00
8641;BME280;4358;42.100;25.222;2022-08-01T01:48:53;99629.91;;;20.72;100.00
8641;BME280;4358;42.100;25.222;2022-08-01T01:51:24;99625.84;;;20.68;100.00
8641;BME280;4358;42.100;25.222;2022-08-01T01:53:52;99626.84;;;20.75;100.00
8641;BME280;4358;42.100;25.222;2022-08-01T01:56:20;99627.16;;;20.80;100.00
8641;BME280;4358;42.100;25.222;2022-08-01T01:58:50;99621.25;;;20.85;100.00
8641;BME280;4358;42.100;25.222;2022-08-01T02:01:19;99630.81;;;20.95;100.00
8641;BME280;4358;42.100;25.222;2022-08-01T02:03:48;99629.78;;;20.96;100.00
8641;BME280;4358;42.100;25.222;2022-08-01T02:06:16;99622.00;;;21.01;100.00
8641;BME280;4358;42.100;25.222;2022-08-01T02:08:44;99627.56;;;21.08;100.00
8641;BME280;4358;42.100;25.222;2022-08-01T02:11:12;99633.44;;;21.11;100.00
8641;BME280;4358;42.100;25.222;2022-08-01T02:13:47;99627.19;;;21.11;100.00
8641;BME280;4358;42.100;25.222;2022-08-01T02:16:15;99631.22;;;21.15;100.00
8641;BME280;4358;42.100;25.222;2022-08-01T02:18:45;99632.75;;;21.18;100.00
8641;BME280;4358;42.100;25.222;2022-08-01T02:21:17;99623.28;;;21.22;100.00
8641;BME280;4358;42.100;25.222;2022-08-01T02:23:48;99628.19;;;21.18;100.00
8641;BME280;4358;42.100;25.222;2022-08-01T02:26:18;99631.06;;;21.17;100.00
8641;BME280;4358;42.100;25.222;2022-08-01T02:28:47;99627.19;;;21.19;100.00
8641;BME280;4358;42.100;25.222;2022-08-01T02:31:18;99631.34;;;21.30;100.00
8641;BME280;4358;42.100;25.222;2022-08-01T02:33:53;99632.91;;;21.47;100.00
8641;BME280;4358;42.100;25.222;2022-08-01T02:36:24;99627.41;;;21.63;100.00
8641;BME280;4358;42.100;25.222;2022-08-01T02:38:54;99634.22;;;21.74;100.00
8641;BME280;4358;42.100;25.222;2022-08-01T02:41:23;99632.50;;;21.81;100.00
8641;BME280;4358;42.100;25.222;2022-08-01T02:43:53;99631.56;;;21.88;100.00
8641;BME280;4358;42.100;25.222;2022-08-01T02:46:25;99622.94;;;21.93;100.00
8641;BME280;4358;42.100;25.222;2022-08-01T02:48:56;99633.72;;;21.93;100.00
8641;BME280;4358;42.100;25.222;2022-08-01T02:51:25;99624.81;;;21.92;100.00
8641;BME280;4358;42.100;25.222;2022-08-01T02:53:54;99625.84;;;21.91;100.00
8641;BME280;4358;42.100;25.222;2022-08-01T02:56:22;99622.47;;;21.89;100.00
8641;BME280;4358;42.100;25.222;2022-08-01T02:59:01;99618.63;;;21.84;100.00
8641;BME280;4358;42.100;25.222;2022-08-01T03:01:29;99616.34;;;21.73;100.00
8641;BME280;4358;42.100;25.222;2022-08-01T03:03:57;99615.75;;;21.63;100.00
8641;BME280;4358;42.100;25.222;2022-08-01T03:06:26;99614.69;;;21.49;100.00
8641;BME280;4358;42.100;25.222;2022-08-01T03:08:54;99625.34;;;21.42;100.00
8641;BME280;4358;42.100;25.222;2022-08-01T03:11:23;99623.88;;;21.40;100.00
8641;BME280;4358;42.100;25.222;2022-08-01T03:13:52;99626.06;;;21.36;100.00
8641;BME280;4358;42.100;25.222;2022-08-01T03:16:21;99619.88;;;21.28;100.00
8641;BME280;4358;42.100;25.222;2022-08-01T03:18:53;99625.81;;;21.23;100.00
8641;BME280;4358;42.100;25.222;2022-08-01T03:21:23;99618.94;;;21.12;100.00
8641;BME280;4358;42.100;25.222;2022-08-01T03:23:51;99626.00;;;21.13;100.00
8641;BME280;4358;42.100;25.222;2022-08-01T03:26:26;99622.50;;;21.05;100.00
8641;BME280;4358;42.100;25.222;2022-08-01T03:28:56;99628.41;;;21.00;100.00
8641;BME280;4358;42.100;25.222;2022-08-01T03:31:25;99628.09;;;20.95;100.00
8641;BME280;4358;42.100;25.222;2022-08-01T03:33:54;99629.13;;;20.94;100.00
8641;BME280;4358;42.100;25.222;2022-08-01T03:36:25;99636.88;;;20.97;100.00
8641;BME280;4358;42.100;25.222;2022-08-01T03:38:57;99630.63;;;20.97;100.00
8641;BME280;4358;42.100;25.222;2022-08-01T03:41:27;99630.63;;;20.97;100.00
8641;BME280;4358;42.100;25.222;2022-08-01T03:43:58;99634.66;;;21.01;100.00
8641;BME280;4358;42.100;25.222;2022-08-01T03:46:32;99631.44;;;21.05;100.00
8641;BME280;4358;42.100;25.222;2022-08-01T03:49:05;99629.72;;;21.12;100.00
8641;BME280;4358;42.100;25.222;2022-08-01T03:51:37;99634.59;;;21.17;100.00
8641;BME280;4358;42.100;25.222;2022-08-01T03:54:05;99636.94;;;21.20;100.00
8641;BME280;4358;42.100;25.222;2022-08-01T03:56:35;99640.78;;;21.26;100.00
8641;BME280;4358;42.100;25.222;2022-08-01T03:59:03;99636.75;;;21.30;100.00
8641;BME280;4358;42.100;25.222;2022-08-01T04:01:31;99635.53;;;21.32;100.00
8641;BME280;4358;42.100;25.222;2022-08-01T04:03:59;99628.22;;;21.41;100.00
8641;BME280;4358;42.100;25.222;2022-08-01T04:06:26;99628.34;;;21.47;100.00
8641;BME280;4358;42.100;25.222;2022-08-01T04:08:55;99624.78;;;21.55;100.00
8641;BME280;4358;42.100;25.222;2022-08-01T04:11:24;99621.34;;;21.61;100.00
8641;BME280;4358;42.100;25.222;2022-08-01T04:13:51;99632.75;;;21.71;100.00
8641;BME280;4358;42.100;25.222;2022-08-01T04:16:19;99624.22;;;21.82;99.58
8641;BME280;4358;42.100;25.222;2022-08-01T04:18:46;99624.28;;;21.97;96.84
8641;BME280;4358;42.100;25.222;2022-08-01T04:21:13;99622.09;;;22.15;93.49
8641;BME280;4358;42.100;25.222;2022-08-01T04:23:41;99635.28;;;22.33;92.02
8641;BME280;4358;42.100;25.222;2022-08-01T04:26:12;99622.22;;;22.51;89.38
8641;BME280;4358;42.100;25.222;2022-08-01T04:28:42;99624.56;;;22.69;87.52
8641;BME280;4358;42.100;25.222;2022-08-01T04:31:11;99627.28;;;22.84;85.97
8641;BME280;4358;42.100;25.222;2022-08-01T04:33:45;99620.19;;;22.97;83.50
8641;BME280;4358;42.100;25.222;2022-08-01T04:36:18;99622.03;;;23.11;82.35
8641;BME280;4358;42.100;25.222;2022-08-01T04:38:48;99629.44;;;23.24;81.09
8641;BME280;4358;42.100;25.222;2022-08-01T04:41:18;99631.03;;;23.33;79.93
8641;BME280;4358;42.100;25.222;2022-08-01T04:43:46;99625.13;;;23.44;78.64
8641;BME280;4358;42.100;25.222;2022-08-01T04:46:14;99621.03;;;23.48;78.08
8641;BME280;4358;42.100;25.222;2022-08-01T04:48:42;99627.34;;;23.55;78.89
8641;BME280;4358;42.100;25.222;2022-08-01T04:51:14;99627.41;;;23.62;78.50
8641;BME280;4358;42.100;25.222;2022-08-01T04:53:41;99628.91;;;23.64;77.12
8641;BME280;4358;42.100;25.222;2022-08-01T04:56:09;99629.16;;;23.70;76.03
8641;BME280;4358;42.100;25.222;2022-08-01T04:58:39;99626.06;;;23.73;76.56
8641;BME280;4358;42.100;25.222;2022-08-01T05:01:07;99631.81;;;23.84;76.73
8641;BME280;4358;42.100;25.222;2022-08-01T05:03:34;99639.16;;;23.90;76.02
8641;BME280;4358;42.100;25.222;2022-08-01T05:06:01;99629.41;;;23.96;74.36
8641;BME280;4358;42.100;25.222;2022-08-01T05:08:28;99627.31;;;23.98;71.96
8641;BME280;4358;42.100;25.222;2022-08-01T05:10:55;99622.41;;;24.08;71.66
8641;BME280;4358;42.100;25.222;2022-08-01T05:13:22;99622.94;;;24.18;69.67
8641;BME280;4358;42.100;25.222;2022-08-01T05:15:50;99628.47;;;24.31;67.51
8641;BME280;4358;42.100;25.222;2022-08-01T05:18:17;99618.09;;;24.41;65.81
8641;BME280;4358;42.100;25.222;2022-08-01T05:20:44;99622.75;;;24.47;64.54
8641;BME280;4358;42.100;25.222;2022-08-01T05:23:12;99619.88;;;24.56;62.68
8641;BME280;4358;42.100;25.222;2022-08-01T05:25:39;99617.00;;;24.64;61.66
8641;BME280;4358;42.100;25.222;2022-08-01T05:28:06;99605.19;;;24.78;59.80
8641;BME280;4358;42.100;25.222;2022-08-01T05:30:33;99616.91;;;24.85;59.29
8641;BME280;4358;42.100;25.222;2022-08-01T05:33:01;99608.00;;;24.98;57.74
8641;BME280;4358;42.100;25.222;2022-08-01T05:35:28;99617.47;;;25.15;56.01
8641;BME280;4358;42.100;25.222;2022-08-01T05:37:55;99617.97;;;25.31;54.40
8641;BME280;4358;42.100;25.222;2022-08-01T05:40:22;99615.50;;;25.43;53.47
8641;BME280;4358;42.100;25.222;2022-08-01T05:42:49;99628.22;;;25.49;52.30
8641;BME280;4358;42.100;25.222;2022-08-01T05:45:15;99620.72;;;25.51;53.21
8641;BME280;4358;42.100;25.222;2022-08-01T05:47:43;99629.16;;;25.63;51.52
8641;BME280;4358;42.100;25.222;2022-08-01T05:50:11;99627.47;;;25.62;50.90
8641;BME280;4358;42.100;25.222;2022-08-01T05:52:38;99632.69;;;25.70;49.09
8641;BME280;4358;42.100;25.222;2022-08-01T05:55:06;99632.91;;;25.75;49.35
8641;BME280;4358;42.100;25.222;2022-08-01T05:57:33;99623.75;;;25.89;48.88
8641;BME280;4358;42.100;25.222;2022-08-01T05:59:59;99631.47;;;25.79;48.59
8641;BME280;4358;42.100;25.222;2022-08-01T06:02:26;99629.38;;;25.81;47.79
8641;BME280;4358;42.100;25.222;2022-08-01T06:04:53;99625.66;;;25.95;48.28
8641;BME280;4358;42.100;25.222;2022-08-01T06:07:22;99632.09;;;26.07;47.75
8641;BME280;4358;42.100;25.222;2022-08-01T06:09:48;99625.44;;;26.17;46.98
8641;BME280;4358;42.100;25.222;2022-08-01T06:12:15;99623.75;;;26.15;47.54
8641;BME280;4358;42.100;25.222;2022-08-01T06:14:42;99618.72;;;26.19;45.34
8641;BME280;4358;42.100;25.222;2022-08-01T06:17:09;99634.84;;;26.21;44.40
8641;BME280;4358;42.100;25.222;2022-08-01T06:19:36;99615.16;;;26.19;44.22
8641;BME280;4358;42.100;25.222;2022-08-01T06:22:03;99624.81;;;26.28;44.49
8641;BME280;4358;42.100;25.222;2022-08-01T06:24:31;99618.31;;;26.29;43.92
8641;BME280;4358;42.100;25.222;2022-08-01T06:26:58;99612.69;;;26.30;42.30
8641;BME280;4358;42.100;25.222;2022-08-01T06:29:25;99612.03;;;26.35;43.43
8641;BME280;4358;42.100;25.222;2022-08-01T06:31:51;99631.50;;;26.45;42.29
8641;BME280;4358;42.100;25.222;2022-08-01T06:34:18;99604.47;;;26.50;41.96
8641;BME280;4358;42.100;25.222;2022-08-01T06:36:46;99604.00;;;26.79;41.50
8641;BME280;4358;42.100;25.222;2022-08-01T06:39:13;99604.81;;;26.93;40.12
8641;BME280;4358;42.100;25.222;2022-08-01T06:41:41;99605.84;;;26.98;40.75
8641;BME280;4358;42.100;25.222;2022-08-01T06:44:10;99605.63;;;27.00;39.51
8641;BME280;4358;42.100;25.222;2022-08-01T06:46:37;99608.56;;;26.98;40.42
8641;BME280;4358;42.100;25.222;2022-08-01T06:49:04;99589.94;;;26.82;39.27
8641;BME280;4358;42.100;25.222;2022-08-01T06:51:30;99612.78;;;26.94;38.90
8641;BME280;4358;42.100;25.222;2022-08-01T06:53:57;99588.47;;;27.00;39.33
8641;BME280;4358;42.100;25.222;2022-08-01T06:56:24;99598.72;;;26.97;38.75
8641;BME280;4358;42.100;25.222;2022-08-01T06:58:53;99596.38;;;27.01;39.03
8641;BME280;4358;42.100;25.222;2022-08-01T07:01:21;99599.72;;;27.10;38.79
8641;BME280;4358;42.100;25.222;2022-08-01T07:03:48;99609.34;;;27.12;39.96
8641;BME280;4358;42.100;25.222;2022-08-01T07:06:15;99621.44;;;27.23;38.57
8641;BME280;4358;42.100;25.222;2022-08-01T07:08:42;99611.75;;;27.33;39.15
8641;BME280;4358;42.100;25.222;2022-08-01T07:11:09;99599.78;;;27.34;38.95
8641;BME280;4358;42.100;25.222;2022-08-01T07:13:36;99605.31;;;27.59;38.95
8641;BME280;4358;42.100;25.222;2022-08-01T07:16:04;99605.25;;;27.72;37.85
8641;BME280;4358;42.100;25.222;2022-08-01T07:18:31;99597.69;;;27.74;38.21
8641;BME280;4358;42.100;25.222;2022-08-01T07:20:57;99605.09;;;27.92;37.69
8641;BME280;4358;42.100;25.222;2022-08-01T07:23:24;99621.69;;;27.91;36.81
8641;BME280;4358;42.100;25.222;2022-08-01T07:25:51;99601.31;;;27.93;37.54
8641;BME280;4358;42.100;25.222;2022-08-01T07:28:18;99590.06;;;28.14;37.73
8641;BME280;4358;42.100;25.222;2022-08-01T07:30:45;99597.78;;;28.11;37.01
8641;BME280;4358;42.100;25.222;2022-08-01T07:33:13;99570.97;;;28.08;37.47
8641;BME280;4358;42.100;25.222;2022-08-01T07:35:40;99602.84;;;28.14;37.29
8641;BME280;4358;42.100;25.222;2022-08-01T07:38:07;99589.69;;;28.29;37.20
8641;BME280;4358;42.100;25.222;2022-08-01T07:40:34;99586.66;;;28.37;36.69
8641;BME280;4358;42.100;25.222;2022-08-01T07:43:01;99587.88;;;28.23;36.89
8641;BME280;4358;42.100;25.222;2022-08-01T07:45:29;99595.53;;;28.33;36.40
8641;BME280;4358;42.100;25.222;2022-08-01T07:48:02;99580.84;;;28.34;36.40
8641;BME280;4358;42.100;25.222;2022-08-01T07:50:30;99587.75;;;28.36;36.29
8641;BME280;4358;42.100;25.222;2022-08-01T07:52:57;99596.31;;;28.40;36.46
8641;BME280;4358;42.100;25.222;2022-08-01T07:55:24;99579.97;;;28.15;36.17
8641;BME280;4358;42.100;25.222;2022-08-01T07:57:51;99568.91;;;28.28;36.91
8641;BME280;4358;42.100;25.222;2022-08-01T08:00:18;99576.84;;;28.36;36.73
8641;BME280;4358;42.100;25.222;2022-08-01T08:02:45;99573.34;;;28.47;35.96
8641;BME280;4358;42.100;25.222;2022-08-01T08:05:13;99566.81;;;28.48;36.76
8641;BME280;4358;42.100;25.222;2022-08-01T08:07:41;99563.28;;;28.66;36.08
8641;BME280;4358;42.100;25.222;2022-08-01T08:10:08;99566.56;;;28.75;35.61
8641;BME280;4358;42.100;25.222;2022-08-01T08:12:35;99568.53;;;28.86;36.16
8641;BME280;4358;42.100;25.222;2022-08-01T08:15:03;99549.25;;;28.81;36.13
8641;BME280;4358;42.100;25.222;2022-08-01T08:17:31;99569.13;;;28.88;35.85
8641;BME280;4358;42.100;25.222;2022-08-01T08:19:59;99562.28;;;28.97;35.71
8641;BME280;4358;42.100;25.222;2022-08-01T08:22:26;99556.38;;;28.82;34.86
8641;BME280;4358;42.100;25.222;2022-08-01T08:24:54;99567.31;;;28.82;34.99
8641;BME280;4358;42.100;25.222;2022-08-01T08:27:21;99566.84;;;28.85;35.20
8641;BME280;4358;42.100;25.222;2022-08-01T08:29:48;99562.84;;;28.87;34.77
8641;BME280;4358;42.100;25.222;2022-08-01T08:32:15;99558.34;;;28.93;34.51
8641;BME280;4358;42.100;25.222;2022-08-01T08:34:42;99559.00;;;29.06;34.45
8641;BME280;4358;42.100;25.222;2022-08-01T08:37:09;99556.59;;;29.28;34.73
8641;BME280;4358;42.100;25.222;2022-08-01T08:39:36;99550.03;;;29.47;34.19
8641;BME280;4358;42.100;25.222;2022-08-01T08:42:07;99545.75;;;29.40;34.04
8641;BME280;4358;42.100;25.222;2022-08-01T08:44:35;99571.63;;;29.37;33.63
8641;BME280;4358;42.100;25.222;2022-08-01T08:47:02;99575.91;;;29.33;33.98
8641;BME280;4358;42.100;25.222;2022-08-01T08:49:32;99542.91;;;29.46;33.54
8641;BME280;4358;42.100;25.222;2022-08-01T08:52:01;99555.09;;;29.62;34.11
8641;BME280;4358;42.100;25.222;2022-08-01T08:54:29;99543.63;;;29.54;34.37
8641;BME280;4358;42.100;25.222;2022-08-01T08:56:58;99557.44;;;29.59;33.96
8641;BME280;4358;42.100;25.222;2022-08-01T08:59:27;99551.72;;;29.48;34.24
8641;BME280;4358;42.100;25.222;2022-08-01T09:01:54;99532.56;;;29.48;34.17
8641;BME280;4358;42.100;25.222;2022-08-01T09:04:21;99525.47;;;29.29;34.55
8641;BME280;4358;42.100;25.222;2022-08-01T09:06:49;99542.44;;;29.50;34.06
8641;BME280;4358;42.100;25.222;2022-08-01T09:09:15;99546.97;;;29.56;34.08
8641;BME280;4358;42.100;25.222;2022-08-01T09:11:43;99540.19;;;29.46;33.37
8641;BME280;4358;42.100;25.222;2022-08-01T09:14:11;99529.69;;;29.43;33.95
8641;BME280;4358;42.100;25.222;2022-08-01T09:16:43;99520.09;;;29.53;33.73
8641;BME280;4358;42.100;25.222;2022-08-01T09:19:12;99561.66;;;29.84;33.21
8641;BME280;4358;42.100;25.222;2022-08-01T09:21:40;99527.72;;;29.74;33.64
8641;BME280;4358;42.100;25.222;2022-08-01T09:24:22;99527.53;;;29.87;33.60
8641;BME280;4358;42.100;25.222;2022-08-01T09:26:49;99523.28;;;30.14;33.34
8641;BME280;4358;42.100;25.222;2022-08-01T09:29:19;99527.09;;;30.13;32.90
8641;BME280;4358;42.100;25.222;2022-08-01T09:31:48;99509.94;;;30.18;33.19
8641;BME280;4358;42.100;25.222;2022-08-01T09:34:15;99526.84;;;30.26;32.74
8641;BME280;4358;42.100;25.222;2022-08-01T09:36:45;99522.34;;;29.97;33.30
8641;BME280;4358;42.100;25.222;2022-08-01T09:39:14;99506.16;;;30.07;33.48
8641;BME280;4358;42.100;25.222;2022-08-01T09:41:41;99521.50;;;30.20;33.30
8641;BME280;4358;42.100;25.222;2022-08-01T09:44:08;99503.53;;;30.36;32.73
8641;BME280;4358;42.100;25.222;2022-08-01T09:46:35;99506.94;;;30.43;33.07
8641;BME280;4358;42.100;25.222;2022-08-01T09:49:05;99498.59;;;30.61;33.28
8641;BME280;4358;42.100;25.222;2022-08-01T09:51:33;99498.63;;;30.38;32.48
8641;BME280;4358;42.100;25.222;2022-08-01T09:54:02;99501.97;;;30.28;33.14
8641;BME280;4358;42.100;25.222;2022-08-01T09:56:36;99494.81;;;30.39;32.97
8641;BME280;4358;42.100;25.222;2022-08-01T09:59:03;99529.09;;;30.53;32.58
8641;BME280;4358;42.100;25.222;2022-08-01T10:01:42;99501.59;;;30.48;33.03
8641;BME280;4358;42.100;25.222;2022-08-01T10:04:13;99486.19;;;30.70;33.06
8641;BME280;4358;42.100;25.222;2022-08-01T10:06:42;99511.59;;;30.94;32.62
8641;BME280;4358;42.100;25.222;2022-08-01T10:09:10;99499.59;;;30.83;31.91
8641;BME280;4358;42.100;25.222;2022-08-01T10:11:37;99506.06;;;30.77;32.33
8641;BME280;4358;42.100;25.222;2022-08-01T10:14:06;99493.53;;;30.81;32.91
8641;BME280;4358;42.100;25.222;2022-08-01T10:16:34;99506.38;;;31.21;32.37
8641;BME280;4358;42.100;25.222;2022-08-01T10:19:03;99507.75;;;31.35;32.77
8641;BME280;4358;42.100;25.222;2022-08-01T10:21:33;99510.84;;;31.10;32.42
8641;BME280;4358;42.100;25.222;2022-08-01T10:24:05;99497.22;;;30.87;32.29
8641;BME280;4358;42.100;25.222;2022-08-01T10:26:33;99500.72;;;31.10;32.39
8641;BME280;4358;42.100;25.222;2022-08-01T10:29:00;99510.41;;;31.30;32.32
8641;BME280;4358;42.100;25.222;2022-08-01T10:31:28;99523.13;;;31.07;32.61
8641;BME280;4358;42.100;25.222;2022-08-01T10:33:58;99504.19;;;30.94;33.33
8641;BME280;4358;42.100;25.222;2022-08-01T10:36:25;99497.44;;;30.85;32.79
8641;BME280;4358;42.100;25.222;2022-08-01T10:38:55;99501.13;;;30.91;33.33
8641;BME280;4358;42.100;25.222;2022-08-01T10:41:22;99495.97;;;30.94;33.72
8641;BME280;4358;42.100;25.222;2022-08-01T10:43:51;99479.63;;;30.99;33.41
8641;BME280;4358;42.100;25.222;2022-08-01T10:46:19;99502.94;;;30.85;33.38
8641;BME280;4358;42.100;25.222;2022-08-01T10:48:53;99489.75;;;31.10;33.10
8641;BME280;4358;42.100;25.222;2022-08-01T10:51:23;99494.75;;;31.13;33.25
8641;BME280;4358;42.100;25.222;2022-08-01T10:53:51;99493.13;;;31.29;32.47
8641;BME280;4358;42.100;25.222;2022-08-01T10:56:20;99497.09;;;31.38;32.73
8641;BME280;4358;42.100;25.222;2022-08-01T10:58:48;99492.38;;;31.05;32.86
8641;BME280;4358;42.100;25.222;2022-08-01T11:01:21;99494.66;;;31.08;33.36
8641;BME280;4358;42.100;25.222;2022-08-01T11:04:02;99494.50;;;31.32;33.31
8641;BME280;4358;42.100;25.222;2022-08-01T11:06:39;99506.56;;;31.31;32.71
8641;BME280;4358;42.100;25.222;2022-08-01T11:09:20;99481.94;;;31.64;32.38
8641;BME280;4358;42.100;25.222;2022-08-01T11:12:03;99502.31;;;31.68;32.57
8641;BME280;4358;42.100;25.222;2022-08-01T11:14:34;99498.09;;;31.32;32.34
8641;BME280;4358;42.100;25.222;2022-08-01T11:17:31;99488.56;;;31.06;33.00
8641;BME280;4358;42.100;25.222;2022-08-01T11:20:09;99474.38;;;31.09;32.99
8641;BME280;4358;42.100;25.222;2022-08-01T11:26:16;99468.03;;;31.54;32.37
8641;BME280;4358;42.100;25.222;2022-08-01T11:28:48;99466.53;;;31.96;31.89
8641;BME280;4358;42.100;25.222;2022-08-01T11:31:33;99469.53;;;32.12;31.48
8641;BME280;4358;42.100;25.222;2022-08-01T11:34:00;99463.94;;;32.23;31.70
8641;BME280;4358;42.100;25.222;2022-08-01T11:36:27;99462.03;;;32.24;31.45
8641;BME280;4358;42.100;25.222;2022-08-01T11:39:24;99467.50;;;32.24;31.30
8641;BME280;4358;42.100;25.222;2022-08-01T11:41:51;99463.59;;;32.20;30.75
8641;BME280;4358;42.100;25.222;2022-08-01T11:44:22;99446.22;;;32.36;30.43
8641;BME280;4358;42.100;25.222;2022-08-01T11:46:59;99452.06;;;32.18;30.63
8641;BME280;4358;42.100;25.222;2022-08-01T11:49:34;99448.19;;;32.62;31.29
8641;BME280;4358;42.100;25.222;2022-08-01T11:52:11;99452.00;;;33.05;30.66
8641;BME280;4358;42.100;25.222;2022-08-01T11:54:40;99459.97;;;33.28;30.44
8641;BME280;4358;42.100;25.222;2022-08-01T11:57:08;99441.59;;;33.07;30.14
8641;BME280;4358;42.100;25.222;2022-08-01T11:59:39;99454.28;;;33.13;30.17
8641;BME280;4358;42.100;25.222;2022-08-01T12:02:21;99454.47;;;33.28;29.63
8641;BME280;4358;42.100;25.222;2022-08-01T12:04:50;99452.31;;;33.35;29.98
8641;BME280;4358;42.100;25.222;2022-08-01T12:07:18;99466.28;;;33.02;29.81
8641;BME280;4358;42.100;25.222;2022-08-01T12:09:45;99450.50;;;32.65;30.37
8641;BME280;4358;42.100;25.222;2022-08-01T12:12:15;99441.94;;;32.45;30.69
8641;BME280;4358;42.100;25.222;2022-08-01T12:14:45;99439.34;;;32.55;30.29
8641;BME280;4358;42.100;25.222;2022-08-01T12:17:20;99439.13;;;32.62;30.46
8641;BME280;4358;42.100;25.222;2022-08-01T12:19:49;99431.72;;;32.41;30.83
8641;BME280;4358;42.100;25.222;2022-08-01T12:22:16;99455.00;;;32.33;30.39
8641;BME280;4358;42.100;25.222;2022-08-01T12:24:42;99439.66;;;32.37;30.26
8641;BME280;4358;42.100;25.222;2022-08-01T12:27:10;99420.50;;;32.42;30.25
8641;BME280;4358;42.100;25.222;2022-08-01T12:29:39;99438.97;;;32.68;29.94
8641;BME280;4358;42.100;25.222;2022-08-01T12:32:24;99453.28;;;32.70;29.67
8641;BME280;4358;42.100;25.222;2022-08-01T12:34:52;99466.50;;;32.73;29.99
8641;BME280;4358;42.100;25.222;2022-08-01T12:37:19;99460.03;;;32.63;30.49
8641;BME280;4358;42.100;25.222;2022-08-01T12:39:47;99438.00;;;32.58;30.14
8641;BME280;4358;42.100;25.222;2022-08-01T12:42:14;99430.00;;;32.78;30.23
8641;BME280;4358;42.100;25.222;2022-08-01T12:44:43;99438.16;;;32.95;30.29
8641;BME280;4358;42.100;25.222;2022-08-01T12:47:11;99431.19;;;33.14;29.16
8641;BME280;4358;42.100;25.222;2022-08-01T12:49:41;99431.03;;;32.99;29.05
8641;BME280;4358;42.100;25.222;2022-08-01T12:52:09;99440.84;;;32.90;29.03
8641;BME280;4358;42.100;25.222;2022-08-01T12:55:05;99422.25;;;32.97;28.88
8641;BME280;4358;42.100;25.222;2022-08-01T12:57:33;99431.84;;;33.21;28.89
8641;BME280;4358;42.100;25.222;2022-08-01T13:00:10;99424.69;;;33.20;28.85
8641;BME280;4358;42.100;25.222;2022-08-01T13:02:38;99420.13;;;33.09;28.85
8641;BME280;4358;42.100;25.222;2022-08-01T13:05:07;99427.25;;;33.05;28.93
8641;BME280;4358;42.100;25.222;2022-08-01T13:07:40;99415.34;;;33.21;29.00
8641;BME280;4358;42.100;25.222;2022-08-01T13:10:09;99422.09;;;33.40;29.37
8641;BME280;4358;42.100;25.222;2022-08-01T13:12:36;99412.31;;;33.54;29.00
8641;BME280;4358;42.100;25.222;2022-08-01T13:15:20;99431.13;;;33.36;29.23
8641;BME280;4358;42.100;25.222;2022-08-01T13:17:49;99428.59;;;33.29;29.57
8641;BME280;4358;42.100;25.222;2022-08-01T13:20:26;99416.75;;;32.97;29.19
8641;BME280;4358;42.100;25.222;2022-08-01T13:22:53;99414.34;;;33.05;29.62